sensor_id;sensor_type;location;lat;lon;timestamp;pressure;altitude;pressure_sealevel;temperature;humidity
65534;BME280;53640;55.838;37.184;2022-08-19T00:00:59;99708.63;;;21.02;33.92
65534;BME280;53640;55.838;37.184;2022-08-19T00:03:25;99762.00;;;21.27;33.13
65534;BME280;53640;55.838;37.184;2022-08-19T00:05:51;99751.81;;;21.27;33.66
65534;BME280;53640;55.838;37.184;2022-08-19T00:08:18;99757.59;;;21.21;33.22
65534;BME280;53640;55.838;37.184;2022-08-19T00:10:44;99696.84;;;20.86;33.65
65534;BME280;53640;55.838;37.184;2022-08-19T00:13:11;99784.56;;;21.44;32.92
65534;BME280;53640;55.838;37.184;2022-08-19T00:15:38;99788.69;;;21.47;33.72
65534;BME280;53640;55.838;37.184;2022-08-19T00:18:04;99761.72;;;21.33;34.25
65534;BME280;53640;55.838;37.184;2022-08-19T00:20:30;99723.75;;;21.10;34.31
65534;BME280;53640;55.838;37.184;2022-08-19T00:22:56;99769.94;;;21.38;34.85
65534;BME280;53640;55.838;37.184;2022-08-19T00:25:23;99745.50;;;21.22;35.01
65534;BME280;53640;55.838;37.184;2022-08-19T00:27:49;99774.91;;;21.42;35.39
65534;BME280;53640;55.838;37.184;2022-08-19T00:30:17;99735.63;;;21.10;35.54
65534;BME280;53640;55.838;37.184;2022-08-19T00:32:43;99766.69;;;21.26;35.40
65534;BME280;53640;55.838;37.184;2022-08-19T00:35:10;99758.72;;;21.14;35.73
65534;BME280;53640;55.838;37.184;2022-08-19T00:37:38;99769.47;;;21.16;35.98
65534;BME280;53640;55.838;37.184;2022-08-19T00:40:05;99786.78;;;21.16;36.52
65534;BME280;53640;55.838;37.184;2022-08-19T00:42:32;99790.38;;;21.12;36.21
65534;BME280;53640;55.838;37.184;2022-08-19T00:44:58;99739.19;;;20.75;36.40
65534;BME280;53640;55.838;37.184;2022-08-19T00:47:26;99768.94;;;20.83;37.05
65534;BME280;53640;55.838;37.184;2022-08-19T00:49:56;99718.31;;;20.49;36.52
65534;BME280;53640;55.838;37.184;2022-08-19T00:52:29;99785.19;;;20.80;36.74
65534;BME280;53640;55.838;37.184;2022-08-19T00:54:58;99781.28;;;20.76;36.86
65534;BME280;53640;55.838;37.184;2022-08-19T00:57:36;99754.63;;;20.51;37.04
65534;BME280;53640;55.838;37.184;2022-08-19T01:00:13;99792.28;;;20.76;37.42
65534;BME280;53640;55.838;37.184;2022-08-19T01:02:41;99797.81;;;20.71;37.37
65534;BME280;53640;55.838;37.184;2022-08-19T01:05:11;99759.28;;;20.45;37.55
65534;BME280;53640;55.838;37.184;2022-08-19T01:07:39;99802.22;;;20.66;37.55
65534;BME280;53640;55.838;37.184;2022-08-19T01:10:37;99784.59;;;20.52;37.41
65534;BME280;53640;55.838;37.184;2022-08-19T01:13:10;99782.09;;;20.46;37.47
65534;BME280;53640;55.838;37.184;2022-08-19T01:15:48;99792.84;;;20.47;37.41
65534;BME280;53640;55.838;37.184;2022-08-19T01:18:17;99810.44;;;20.56;37.80
65534;BME280;53640;55.838;37.184;2022-08-19T01:20:44;99762.56;;;20.27;37.79
65534;BME280;53640;55.838;37.184;2022-08-19T01:23:12;99807.13;;;20.49;37.91
65534;BME280;53640;55.838;37.184;2022-08-19T01:25:46;99803.28;;;20.45;37.53
65534;BME280;53640;55.838;37.184;2022-08-19T01:28:31;99785.69;;;20.36;37.51
65534;BME280;53640;55.838;37.184;2022-08-19T01:30:58;99784.81;;;20.30;37.41
65534;BME280;53640;55.838;37.184;2022-08-19T01:33:24;99755.91;;;20.12;38.03
65534;BME280;53640;55.838;37.184;2022-08-19T01:35:51;99801.06;;;20.37;38.07
65534;BME280;53640;55.838;37.184;2022-08-19T01:38:24;99783.72;;;20.21;37.75
65534;BME280;53640;55.838;37.184;2022-08-19T01:40:51;99729.44;;;19.86;38.83
65534;BME280;53640;55.838;37.184;2022-08-19T01:43:19;99793.63;;;20.17;38.61
65534;BME280;53640;55.838;37.184;2022-08-19T01:45:46;99805.44;;;20.17;38.99
65534;BME280;53640;55.838;37.184;2022-08-19T01:48:14;99828.53;;;20.22;38.81
65534;BME280;53640;55.838;37.184;2022-08-19T01:50:41;99773.41;;;19.81;39.17
65534;BME280;53640;55.838;37.184;2022-08-19T01:53:10;99803.66;;;19.91;39.60
65534;BME280;53640;55.838;37.184;2022-08-19T01:55:40;99773.31;;;19.60;39.73
65534;BME280;53640;55.838;37.184;2022-08-19T01:58:15;99773.31;;;19.60;39.77
65534;BME280;53640;55.838;37.184;2022-08-19T02:00:43;99825.59;;;19.86;39.91
65534;BME280;53640;55.838;37.184;2022-08-19T02:03:11;99820.63;;;19.73;39.79
65534;BME280;53640;55.838;37.184;2022-08-19T02:05:38;99824.16;;;19.68;40.26
65534;BME280;53640;55.838;37.184;2022-08-19T02:08:05;99775.06;;;19.34;40.32
65534;BME280;53640;55.838;37.184;2022-08-19T02:10:31;99792.47;;;19.45;40.57
65534;BME280;53640;55.838;37.184;2022-08-19T02:12:58;99783.31;;;19.34;40.42
65534;BME280;53640;55.838;37.184;2022-08-19T02:15:24;99840.38;;;19.69;40.31
65534;BME280;53640;55.838;37.184;2022-08-19T02:17:51;99843.66;;;19.66;40.25
65534;BME280;53640;55.838;37.184;2022-08-19T02:20:18;99759.88;;;19.21;40.33
65534;BME280;53640;55.838;37.184;2022-08-19T02:22:44;99803.47;;;19.45;40.60
65534;BME280;53640;55.838;37.184;2022-08-19T02:25:11;99824.91;;;19.53;40.00
65534;BME280;53640;55.838;37.184;2022-08-19T02:27:40;99822.41;;;19.52;40.51
65534;BME280;53640;55.838;37.184;2022-08-19T02:30:09;99805.31;;;19.39;40.94
65534;BME280;53640;55.838;37.184;2022-08-19T02:32:36;99824.09;;;19.53;40.58
65534;BME280;53640;55.838;37.184;2022-08-19T02:35:02;99786.00;;;19.24;40.54
65534;BME280;53640;55.838;37.184;2022-08-19T02:37:29;99796.16;;;19.29;40.94
65534;BME280;53640;55.838;37.184;2022-08-19T02:40:14;99837.81;;;19.53;40.95
65534;BME280;53640;55.838;37.184;2022-08-19T02:42:41;99769.44;;;19.14;40.81
65534;BME280;53640;55.838;37.184;2022-08-19T02:45:07;99818.31;;;19.49;40.38
65534;BME280;53640;55.838;37.184;2022-08-19T02:47:33;99822.16;;;19.53;40.13
65534;BME280;53640;55.838;37.184;2022-08-19T02:50:01;99785.53;;;19.37;40.60
65534;BME280;53640;55.838;37.184;2022-08-19T02:52:28;99808.69;;;19.52;40.60
65534;BME280;53640;55.838;37.184;2022-08-19T02:54:55;99821.94;;;19.60;40.35
65534;BME280;53640;55.838;37.184;2022-08-19T02:57:24;99815.28;;;19.56;40.25
65534;BME280;53640;55.838;37.184;2022-08-19T02:59:50;99811.06;;;19.38;40.72
65534;BME280;53640;55.838;37.184;2022-08-19T03:02:17;99781.25;;;19.14;40.84
65534;BME280;53640;55.838;37.184;2022-08-19T03:04:43;99812.03;;;19.21;40.77
65534;BME280;53640;55.838;37.184;2022-08-19T03:07:13;99823.28;;;19.15;40.97
65534;BME280;53640;55.838;37.184;2022-08-19T03:09:39;99798.69;;;18.93;41.20
65534;BME280;53640;55.838;37.184;2022-08-19T03:12:08;99829.78;;;19.04;41.49
65534;BME280;53640;55.838;37.184;2022-08-19T03:14:34;99790.63;;;18.81;41.84
65534;BME280;53640;55.838;37.184;2022-08-19T03:17:02;99811.22;;;18.84;41.75
65534;BME280;53640;55.838;37.184;2022-08-19T03:19:29;99847.81;;;18.99;41.68
65534;BME280;53640;55.838;37.184;2022-08-19T03:21:55;99849.91;;;18.87;41.67
65534;BME280;53640;55.838;37.184;2022-08-19T03:24:21;99775.41;;;18.36;42.41
65534;BME280;53640;55.838;37.184;2022-08-19T03:26:51;99866.34;;;18.82;42.05
65534;BME280;53640;55.838;37.184;2022-08-19T03:29:19;99815.84;;;18.51;42.02
65534;BME280;53640;55.838;37.184;2022-08-19T03:31:45;99844.81;;;18.69;42.46
65534;BME280;53640;55.838;37.184;2022-08-19T03:34:14;99824.06;;;18.51;42.53
65534;BME280;53640;55.838;37.184;2022-08-19T03:36:41;99848.50;;;18.58;42.71
65534;BME280;53640;55.838;37.184;2022-08-19T03:39:07;99852.66;;;18.60;42.87
65534;BME280;53640;55.838;37.184;2022-08-19T03:41:38;99812.88;;;18.31;43.04
65534;BME280;53640;55.838;37.184;2022-08-19T03:44:05;99833.03;;;18.46;42.79
65534;BME280;53640;55.838;37.184;2022-08-19T03:46:32;99827.50;;;18.41;43.02
65534;BME280;53640;55.838;37.184;2022-08-19T03:49:02;99820.38;;;18.40;42.62
65534;BME280;53640;55.838;37.184;2022-08-19T03:51:37;99833.91;;;18.47;42.93
65534;BME280;53640;55.838;37.184;2022-08-19T03:54:07;99861.47;;;18.62;42.93
65534;BME280;53640;55.838;37.184;2022-08-19T03:56:37;99845.22;;;18.56;43.29
65534;BME280;53640;55.838;37.184;2022-08-19T03:59:06;99860.09;;;18.65;42.89
65534;BME280;53640;55.838;37.184;2022-08-19T04:01:32;99861.53;;;18.67;42.86
65534;BME280;53640;55.838;37.184;2022-08-19T04:04:00;99858.19;;;18.65;42.89
65534;BME280;53640;55.838;37.184;2022-08-19T04:06:32;99854.97;;;18.68;42.84
65534;BME280;53640;55.838;37.184;2022-08-19T04:09:00;99848.13;;;18.71;42.78
65534;BME280;53640;55.838;37.184;2022-08-19T04:11:31;99851.44;;;18.73;42.73
65534;BME280;53640;55.838;37.184;2022-08-19T04:13:59;99833.72;;;18.59;42.84
65534;BME280;53640;55.838;37.184;2022-08-19T04:16:27;99820.25;;;18.57;42.55
65534;BME280;53640;55.838;37.184;2022-08-19T04:18:59;99864.44;;;18.88;42.78
65534;BME280;53640;55.838;37.184;2022-08-19T04:21:28;99846.84;;;18.79;43.11
65534;BME280;53640;55.838;37.184;2022-08-19T04:23:55;99864.75;;;18.91;43.16
65534;BME280;53640;55.838;37.184;2022-08-19T04:26:25;99869.19;;;18.92;43.13
65534;BME280;53640;55.838;37.184;2022-08-19T04:28:52;99869.22;;;18.97;43.04
65534;BME280;53640;55.838;37.184;2022-08-19T04:31:21;99841.38;;;18.84;43.12
65534;BME280;53640;55.838;37.184;2022-08-19T04:33:48;99822.66;;;18.75;42.54
65534;BME280;53640;55.838;37.184;2022-08-19T04:36:23;99835.97;;;18.89;42.91
65534;BME280;53640;55.838;37.184;2022-08-19T04:38:53;99845.94;;;19.00;42.96
65534;BME280;53640;55.838;37.184;2022-08-19T04:41:20;99847.88;;;19.05;43.25
65534;BME280;53640;55.838;37.184;2022-08-19T04:44:05;99835.47;;;18.97;42.94
65534;BME280;53640;55.838;37.184;2022-08-19T04:46:33;99872.97;;;19.18;43.06
65534;BME280;53640;55.838;37.184;2022-08-19T04:49:00;99853.91;;;19.07;42.39
65534;BME280;53640;55.838;37.184;2022-08-19T04:51:27;99873.53;;;19.20;42.58
65534;BME280;53640;55.838;37.184;2022-08-19T04:53:57;99846.00;;;19.10;42.73
65534;BME280;53640;55.838;37.184;2022-08-19T04:56:26;99855.19;;;19.26;42.47
65534;BME280;53640;55.838;37.184;2022-08-19T04:58:54;99821.56;;;19.09;42.75
65534;BME280;53640;55.838;37.184;2022-08-19T05:01:26;99865.38;;;19.31;42.31
65534;BME280;53640;55.838;37.184;2022-08-19T05:03:54;99877.03;;;19.48;41.96
65534;BME280;53640;55.838;37.184;2022-08-19T05:06:22;99891.44;;;19.65;42.10
65534;BME280;53640;55.838;37.184;2022-08-19T05:08:49;99867.78;;;19.59;41.82
65534;BME280;53640;55.838;37.184;2022-08-19T05:11:19;99844.13;;;19.53;41.66
65534;BME280;53640;55.838;37.184;2022-08-19T05:13:49;99892.66;;;19.85;41.39
65534;BME280;53640;55.838;37.184;2022-08-19T05:16:17;99889.09;;;19.89;41.52
65534;BME280;53640;55.838;37.184;2022-08-19T05:18:43;99887.22;;;19.95;41.53
65534;BME280;53640;55.838;37.184;2022-08-19T05:21:29;99855.81;;;19.81;41.63
65534;BME280;53640;55.838;37.184;2022-08-19T05:24:15;99888.63;;;20.08;40.94
65534;BME280;53640;55.838;37.184;2022-08-19T05:26:46;99878.47;;;20.08;41.15
65534;BME280;53640;55.838;37.184;2022-08-19T05:29:18;99898.38;;;20.26;41.31
65534;BME280;53640;55.838;37.184;2022-08-19T05:31:46;99870.59;;;20.27;40.80
65534;BME280;53640;55.838;37.184;2022-08-19T05:34:16;99854.38;;;20.26;40.76
65534;BME280;53640;55.838;37.184;2022-08-19T05:36:44;99840.34;;;20.22;40.35
65534;BME280;53640;55.838;37.184;2022-08-19T05:39:15;99845.88;;;20.32;40.37
65534;BME280;53640;55.838;37.184;2022-08-19T05:41:48;99810.34;;;20.15;40.01
65534;BME280;53640;55.838;37.184;2022-08-19T05:44:15;99886.41;;;20.73;39.61
65534;BME280;53640;55.838;37.184;2022-08-19T05:46:44;99857.25;;;20.61;39.15
65534;BME280;53640;55.838;37.184;2022-08-19T05:49:14;99861.34;;;20.64;38.79
65534;BME280;53640;55.838;37.184;2022-08-19T05:51:42;99878.72;;;20.80;39.17
65534;BME280;53640;55.838;37.184;2022-08-19T05:54:09;99861.91;;;20.76;38.74
65534;BME280;53640;55.838;37.184;2022-08-19T05:56:37;99867.19;;;20.83;39.17
65534;BME280;53640;55.838;37.184;2022-08-19T05:59:05;99876.28;;;20.94;38.85
65534;BME280;53640;55.838;37.184;2022-08-19T06:01:37;99890.88;;;21.04;38.93
65534;BME280;53640;55.838;37.184;2022-08-19T06:04:04;99868.56;;;21.01;38.52
65534;BME280;53640;55.838;37.184;2022-08-19T06:06:30;99868.84;;;21.04;38.46
65534;BME280;53640;55.838;37.184;2022-08-19T06:08:56;99901.06;;;21.29;38.37
65534;BME280;53640;55.838;37.184;2022-08-19T06:11:44;99820.41;;;20.83;38.29
65534;BME280;53640;55.838;37.184;2022-08-19T06:14:14;99888.38;;;21.28;38.37
65534;BME280;53640;55.838;37.184;2022-08-19T06:16:42;99869.41;;;21.16;38.15
65534;BME280;53640;55.838;37.184;2022-08-19T06:19:12;99863.31;;;21.25;37.65
65534;BME280;53640;55.838;37.184;2022-08-19T06:21:40;99896.13;;;21.47;37.53
65534;BME280;53640;55.838;37.184;2022-08-19T06:24:09;99886.75;;;21.37;37.58
65534;BME280;53640;55.838;37.184;2022-08-19T06:26:38;99885.34;;;21.45;37.94
65534;BME280;53640;55.838;37.184;2022-08-19T06:29:06;99897.50;;;21.49;37.89
65534;BME280;53640;55.838;37.184;2022-08-19T06:31:34;99847.09;;;21.18;37.93
65534;BME280;53640;55.838;37.184;2022-08-19T06:34:02;99898.31;;;21.60;38.33
65534;BME280;53640;55.838;37.184;2022-08-19T06:36:36;99906.84;;;21.63;38.46
65534;BME280;53640;55.838;37.184;2022-08-19T06:39:05;99900.22;;;21.64;38.14
65534;BME280;53640;55.838;37.184;2022-08-19T06:41:35;99875.47;;;21.49;38.18
65534;BME280;53640;55.838;37.184;2022-08-19T06:44:04;99910.69;;;21.68;38.68
65534;BME280;53640;55.838;37.184;2022-08-19T06:46:30;99912.06;;;21.75;38.43
65534;BME280;53640;55.838;37.184;2022-08-19T06:48:57;99869.09;;;21.59;38.37
65534;BME280;53640;55.838;37.184;2022-08-19T06:51:24;99859.47;;;21.56;38.21
65534;BME280;53640;55.838;37.184;2022-08-19T06:53:52;99907.88;;;21.98;37.94
65534;BME280;53640;55.838;37.184;2022-08-19T06:56:26;99882.53;;;21.91;37.82
65534;BME280;53640;55.838;37.184;2022-08-19T06:59:09;99893.50;;;22.06;37.92
65534;BME280;53640;55.838;37.184;2022-08-19T07:01:47;99909.47;;;22.20;38.03
65534;BME280;53640;55.838;37.184;2022-08-19T07:04:16;99872.84;;;21.99;38.01
65534;BME280;53640;55.838;37.184;2022-08-19T07:06:43;99911.09;;;22.26;38.11
65534;BME280;53640;55.838;37.184;2022-08-19T07:09:15;99875.03;;;22.12;38.04
65534;BME280;53640;55.838;37.184;2022-08-19T07:11:46;99902.81;;;22.31;37.64
65534;BME280;53640;55.838;37.184;2022-08-19T07:14:14;99909.09;;;22.42;37.52
65534;BME280;53640;55.838;37.184;2022-08-19T07:16:45;99826.31;;;21.87;38.02
65534;BME280;53640;55.838;37.184;2022-08-19T07:19:13;99906.34;;;22.36;37.98
65534;BME280;53640;55.838;37.184;2022-08-19T07:21:40;99911.56;;;22.38;37.79
65534;BME280;53640;55.838;37.184;2022-08-19T07:24:07;99872.78;;;22.19;37.57
65534;BME280;53640;55.838;37.184;2022-08-19T07:26:42;99898.38;;;22.35;37.29
65534;BME280;53640;55.838;37.184;2022-08-19T07:29:09;99869.78;;;22.16;37.23
65534;BME280;53640;55.838;37.184;2022-08-19T07:31:37;99914.59;;;22.42;36.90
65534;BME280;53640;55.838;37.184;2022-08-19T07:34:05;99909.13;;;22.36;37.36
65534;BME280;53640;55.838;37.184;2022-08-19T07:36:35;99862.03;;;22.07;37.57
65534;BME280;53640;55.838;37.184;2022-08-19T07:39:07;99883.50;;;22.31;37.49
65534;BME280;53640;55.838;37.184;2022-08-19T07:41:35;99883.81;;;22.24;37.33
65534;BME280;53640;55.838;37.184;2022-08-19T07:44:03;99842.19;;;22.10;36.98
65534;BME280;53640;55.838;37.184;2022-08-19T07:46:31;99889.78;;;22.42;37.13
65534;BME280;53640;55.838;37.184;2022-08-19T07:48:58;99922.78;;;22.62;37.37
65534;BME280;53640;55.838;37.184;2022-08-19T07:51:27;99874.03;;;22.47;36.89
65534;BME280;53640;55.838;37.184;2022-08-19T07:53:54;99906.19;;;22.67;36.96
65534;BME280;53640;55.838;37.184;2022-08-19T07:56:21;99910.88;;;22.77;36.92
65534;BME280;53640;55.838;37.184;2022-08-19T07:58:50;99891.53;;;22.72;36.48
65534;BME280;53640;55.838;37.184;2022-08-19T08:01:21;99923.44;;;22.98;36.81
65534;BME280;53640;55.838;37.184;2022-08-19T08:03:52;99925.84;;;23.10;36.51
65534;BME280;53640;55.838;37.184;2022-08-19T08:06:37;99912.47;;;23.22;36.39
65534;BME280;53640;55.838;37.184;2022-08-19T08:09:26;99913.19;;;23.38;36.23
65534;BME280;53640;55.838;37.184;2022-08-19T08:11:54;99927.44;;;23.50;35.87
65534;BME280;53640;55.838;37.184;2022-08-19T08:14:29;99894.66;;;23.39;35.96
65534;BME280;53640;55.838;37.184;2022-08-19T08:16:57;99916.53;;;23.64;35.44
65534;BME280;53640;55.838;37.184;2022-08-19T08:19:26;99924.97;;;23.78;35.38
65534;BME280;53640;55.838;37.184;2022-08-19T08:21:58;99906.84;;;23.67;34.60
65534;BME280;53640;55.838;37.184;2022-08-19T08:24:26;99894.66;;;23.68;34.93
65534;BME280;53640;55.838;37.184;2022-08-19T08:26:53;99910.84;;;23.79;34.88
65534;BME280;53640;55.838;37.184;2022-08-19T08:29:20;99938.06;;;23.96;33.89
65534;BME280;53640;55.838;37.184;2022-08-19T08:31:47;99886.31;;;23.73;33.24
65534;BME280;53640;55.838;37.184;2022-08-19T08:34:14;99924.22;;;23.96;31.47
65534;BME280;53640;55.838;37.184;2022-08-19T08:36:43;99934.28;;;23.87;32.02
65534;BME280;53640;55.838;37.184;2022-08-19T08:39:20;99922.25;;;23.73;31.90
65534;BME280;53640;55.838;37.184;2022-08-19T08:41:56;99930.19;;;23.79;31.80
65534;BME280;53640;55.838;37.184;2022-08-19T08:44:38;99859.06;;;23.37;31.25
65534;BME280;53640;55.838;37.184;2022-08-19T08:47:12;99936.53;;;23.85;30.99
65534;BME280;53640;55.838;37.184;2022-08-19T08:49:45;99890.25;;;23.67;29.87
65534;BME280;53640;55.838;37.184;2022-08-19T08:52:29;99917.03;;;23.71;29.70
65534;BME280;53640;55.838;37.184;2022-08-19T08:54:59;99878.00;;;23.49;29.62
65534;BME280;53640;55.838;37.184;2022-08-19T08:57:30;99877.25;;;23.38;30.09
65534;BME280;53640;55.838;37.184;2022-08-19T09:00:00;99885.03;;;23.31;30.33
65534;BME280;53640;55.838;37.184;2022-08-19T09:02:29;99890.56;;;23.31;30.80
65534;BME280;53640;55.838;37.184;2022-08-19T09:04:56;99866.09;;;23.19;30.57
65534;BME280;53640;55.838;37.184;2022-08-19T09:07:59;99926.59;;;23.55;31.00
65534;BME280;53640;55.838;37.184;2022-08-19T09:10:46;99932.81;;;23.66;30.48
65534;BME280;53640;55.838;37.184;2022-08-19T09:13:29;99923.69;;;23.70;30.77
65534;BME280;53640;55.838;37.184;2022-08-19T09:16:10;99934.50;;;24.20;30.76
65534;BME280;53640;55.838;37.184;2022-08-19T09:18:44;99930.94;;;24.62;30.50
65534;BME280;53640;55.838;37.184;2022-08-19T09:21:15;99931.16;;;25.22;29.96
65534;BME280;53640;55.838;37.184;2022-08-19T09:23:41;99933.34;;;25.72;29.21
65534;BME280;53640;55.838;37.184;2022-08-19T09:26:14;99923.16;;;26.00;29.04
65534;BME280;53640;55.838;37.184;2022-08-19T09:28:43;99921.28;;;26.51;28.43
65534;BME280;53640;55.838;37.184;2022-08-19T09:31:15;99926.16;;;26.81;27.77
65534;BME280;53640;55.838;37.184;2022-08-19T09:33:42;99930.13;;;27.03;27.52
65534;BME280;53640;55.838;37.184;2022-08-19T09:36:14;99940.69;;;27.37;27.27
65534;BME280;53640;55.838;37.184;2022-08-19T09:38:43;99918.47;;;27.59;27.06
65534;BME280;53640;55.838;37.184;2022-08-19T09:41:16;99866.13;;;27.61;26.68
65534;BME280;53640;55.838;37.184;2022-08-19T09:46:32;99898.16;;;28.30;25.81
65534;BME280;53640;55.838;37.184;2022-08-19T09:48:59;99925.63;;;28.80;25.42
65534;BME280;53640;55.838;37.184;2022-08-19T09:51:26;99911.38;;;28.81;25.40
65534;BME280;53640;55.838;37.184;2022-08-19T09:53:59;99926.13;;;28.82;25.07
65534;BME280;53640;55.838;37.184;2022-08-19T09:56:26;99925.63;;;28.71;25.06
65534;BME280;53640;55.838;37.184;2022-08-19T09:58:52;99906.09;;;28.63;24.42
65534;BME280;53640;55.838;37.184;2022-08-19T10:01:22;99897.56;;;28.50;24.24
65534;BME280;53640;55.838;37.184;2022-08-19T10:03:52;99925.13;;;28.78;24.58
65534;BME280;53640;55.838;37.184;2022-08-19T10:06:21;99921.56;;;29.12;24.45
65534;BME280;53640;55.838;37.184;2022-08-19T10:08:49;99907.25;;;29.22;24.08
65534;BME280;53640;55.838;37.184;2022-08-19T10:11:19;99922.50;;;29.33;23.80
65534;BME280;53640;55.838;37.184;2022-08-19T10:13:46;99926.09;;;29.51;24.08
65534;BME280;53640;55.838;37.184;2022-08-19T10:16:17;99927.25;;;29.59;24.22
65534;BME280;53640;55.838;37.184;2022-08-19T10:18:45;99878.69;;;29.43;23.57
65534;BME280;53640;55.838;37.184;2022-08-19T10:21:14;99916.50;;;29.87;23.13
65534;BME280;53640;55.838;37.184;2022-08-19T10:23:44;99909.69;;;29.97;21.35
65534;BME280;53640;55.838;37.184;2022-08-19T10:26:19;99899.53;;;29.92;21.32
65534;BME280;53640;55.838;37.184;2022-08-19T10:28:46;99927.44;;;30.01;21.49
65534;BME280;53640;55.838;37.184;2022-08-19T10:31:17;99916.66;;;29.82;22.10
65534;BME280;53640;55.838;37.184;2022-08-19T10:34:10;99934.38;;;29.86;22.03
65534;BME280;53640;55.838;37.184;2022-08-19T10:36:43;99837.06;;;29.20;21.83
65534;BME280;53640;55.838;37.184;2022-08-19T10:39:10;99871.50;;;29.24;20.78
65534;BME280;53640;55.838;37.184;2022-08-19T10:41:38;99880.19;;;28.88;19.31
65534;BME280;53640;55.838;37.184;2022-08-19T10:44:08;99941.19;;;29.33;19.56
65534;BME280;53640;55.838;37.184;2022-08-19T10:46:37;99921.06;;;29.10;19.56
65534;BME280;53640;55.838;37.184;2022-08-19T10:49:05;99928.25;;;29.11;19.78
65534;BME280;53640;55.838;37.184;2022-08-19T10:51:32;99930.53;;;29.26;20.08
65534;BME280;53640;55.838;37.184;2022-08-19T10:54:17;99912.81;;;29.40;19.66
65534;BME280;53640;55.838;37.184;2022-08-19T10:56:44;99928.22;;;29.72;19.80
65534;BME280;53640;55.838;37.184;2022-08-19T10:59:25;99936.41;;;29.68;19.70
65534;BME280;53640;55.838;37.184;2022-08-19T11:01:54;99937.34;;;29.81;18.99
65534;BME280;53640;55.838;37.184;2022-08-19T11:04:27;99947.81;;;29.93;18.71
65534;BME280;53640;55.838;37.184;2022-08-19T11:06:53;99907.09;;;29.53;18.14
65534;BME280;53640;55.838;37.184;2022-08-19T11:09:25;99924.16;;;29.90;19.02
65534;BME280;53640;55.838;37.184;2022-08-19T11:11:53;99903.56;;;29.74;19.19
65534;BME280;53640;55.838;37.184;2022-08-19T11:14:20;99931.06;;;29.93;18.81
65534;BME280;53640;55.838;37.184;2022-08-19T11:16:54;99931.09;;;29.84;19.17
65534;BME280;53640;55.838;37.184;2022-08-19T11:19:25;99876.75;;;29.35;19.83
65534;BME280;53640;55.838;37.184;2022-08-19T11:21:52;99891.16;;;29.37;20.12
65534;BME280;53640;55.838;37.184;2022-08-19T11:24:23;99811.53;;;28.83;19.45
65534;BME280;53640;55.838;37.184;2022-08-19T11:26:52;99932.00;;;29.41;20.10
65534;BME280;53640;55.838;37.184;2022-08-19T11:29:21;99947.75;;;29.46;19.20
65534;BME280;53640;55.838;37.184;2022-08-19T11:31:49;99945.16;;;29.49;18.55
65534;BME280;53640;55.838;37.184;2022-08-19T11:34:19;99921.03;;;29.53;16.12
65534;BME280;53640;55.838;37.184;2022-08-19T11:36:47;99901.50;;;29.36;15.86
65534;BME280;53640;55.838;37.184;2022-08-19T11:39:16;99903.19;;;29.20;15.25
65534;BME280;53640;55.838;37.184;2022-08-19T11:41:43;99942.03;;;29.42;15.83
65534;BME280;53640;55.838;37.184;2022-08-19T11:44:10;99933.00;;;29.37;15.99
65534;BME280;53640;55.838;37.184;2022-08-19T11:46:37;99930.22;;;29.28;15.97
65534;BME280;53640;55.838;37.184;2022-08-19T11:49:05;99909.22;;;29.22;16.14
65534;BME280;53640;55.838;37.184;2022-08-19T11:51:33;99915.13;;;29.29;16.12
65534;BME280;53640;55.838;37.184;2022-08-19T11:54:00;99939.06;;;29.39;15.75
65534;BME280;53640;55.838;37.184;2022-08-19T11:56:27;99925.16;;;29.13;15.19
65534;BME280;53640;55.838;37.184;2022-08-19T11:58:54;99946.47;;;29.26;14.69
65534;BME280;53640;55.838;37.184;2022-08-19T12:01:24;99884.00;;;29.01;15.07
65534;BME280;53640;55.838;37.184;2022-08-19T12:03:52;99932.97;;;29.45;14.35
65534;BME280;53640;55.838;37.184;2022-08-19T12:06:25;99932.66;;;29.55;14.27
65534;BME280;53640;55.838;37.184;2022-08-19T12:08:55;99925.91;;;29.48;14.88
65534;BME280;53640;55.838;37.184;2022-08-19T12:11:23;99941.34;;;29.45;15.01
65534;BME280;53640;55.838;37.184;2022-08-19T12:13:50;99923.97;;;29.22;15.08
65534;BME280;53640;55.838;37.184;2022-08-19T12:16:19;99939.91;;;29.30;15.47
65534;BME280;53640;55.838;37.184;2022-08-19T12:18:47;99942.06;;;29.16;15.99
65534;BME280;53640;55.838;37.184;2022-08-19T12:21:15;99913.81;;;28.92;16.63
65534;BME280;53640;55.838;37.184;2022-08-19T12:23:42;99924.97;;;28.92;16.64
65534;BME280;53640;55.838;37.184;2022-08-19T12:26:10;99897.09;;;28.74;17.01
65534;BME280;53640;55.838;37.184;2022-08-19T12:28:37;99924.34;;;29.12;16.84
65534;BME280;53640;55.838;37.184;2022-08-19T12:31:04;99907.47;;;29.08;16.61
65534;BME280;53640;55.838;37.184;2022-08-19T12:33:32;99932.53;;;29.35;16.86
65534;BME280;53640;55.838;37.184;2022-08-19T12:36:09;99922.16;;;29.44;17.04
65534;BME280;53640;55.838;37.184;2022-08-19T12:38:37;99892.50;;;29.30;16.56
65534;BME280;53640;55.838;37.184;2022-08-19T12:41:05;99915.56;;;29.48;17.10
65534;BME280;53640;55.838;37.184;2022-08-19T12:43:33;99897.91;;;29.36;16.68
65534;BME280;53640;55.838;37.184;2022-08-19T12:46:04;99924.28;;;29.55;16.90
65534;BME280;53640;55.838;37.184;2022-08-19T12:48:32;99899.66;;;29.49;17.24
65534;BME280;53640;55.838;37.184;2022-08-19T12:50:58;99907.41;;;29.52;17.28
65534;BME280;53640;55.838;37.184;2022-08-19T12:53:24;99895.91;;;29.45;17.33
65534;BME280;53640;55.838;37.184;2022-08-19T12:55:55;99916.53;;;29.70;17.62
65534;BME280;53640;55.838;37.184;2022-08-19T12:58:22;99921.88;;;29.92;17.86
65534;BME280;53640;55.838;37.184;2022-08-19T13:00:49;99932.16;;;30.09;18.16
65534;BME280;53640;55.838;37.184;2022-08-19T13:03:15;99927.22;;;30.15;18.47
65534;BME280;53640;55.838;37.184;2022-08-19T13:05:41;99938.84;;;30.25;18.29